createdAt,value
2023-01-13T00:00:18.848Z,0.50
2023-01-13T00:02:46.342Z,0.60
2023-01-13T00:05:13.552Z,0.40
2023-01-13T00:07:40.642Z,0.60
2023-01-13T00:10:10.304Z,0.40
2023-01-13T00:12:41.627Z,0.70
2023-01-13T00:15:10.041Z,0.68
2023-01-13T00:17:37.258Z,0.50
2023-01-13T00:20:05.064Z,0.63
2023-01-13T00:22:35.891Z,0.80
2023-01-13T00:25:04.754Z,0.65
2023-01-13T00:27:32.569Z,0.60
2023-01-13T00:30:00.280Z,0.60
2023-01-13T00:32:27.863Z,0.60
2023-01-13T00:34:55.612Z,0.50
2023-01-13T00:37:23.555Z,0.52
2023-01-13T00:39:53.695Z,0.50
2023-01-13T00:42:39.506Z,0.45
2023-01-13T00:45:07.073Z,0.80
2023-01-13T00:47:34.257Z,0.50
2023-01-13T00:50:01.640Z,0.50
2023-01-13T00:52:28.712Z,0.50
2023-01-13T00:54:55.731Z,0.60
2023-01-13T00:57:22.764Z,0.40
2023-01-13T00:59:50.037Z,0.60
2023-01-13T01:02:17.257Z,0.65
2023-01-13T01:04:45.354Z,0.60
2023-01-13T01:07:12.468Z,0.50
2023-01-13T01:09:39.695Z,0.52
2023-01-13T01:12:07.020Z,0.50
2023-01-13T01:14:34.102Z,0.43
2023-01-13T01:17:01.290Z,0.60
2023-01-13T01:19:28.324Z,0.40
2023-01-13T01:21:55.385Z,0.47
2023-01-13T01:24:22.465Z,0.50
2023-01-13T01:26:49.536Z,0.50
2023-01-13T01:29:16.762Z,0.60
2023-01-13T01:31:44.156Z,0.40
2023-01-13T01:34:11.554Z,0.60
2023-01-13T01:36:39.558Z,0.60
2023-01-13T01:39:07.161Z,0.50
2023-01-13T01:41:36.017Z,0.50
2023-01-13T01:44:08.844Z,0.50
2023-01-13T01:46:40.076Z,0.60
2023-01-13T01:49:28.029Z,0.70
2023-01-13T01:52:02.562Z,0.65
2023-01-13T01:54:42.090Z,0.50
2023-01-13T01:57:14.525Z,0.50
2023-01-13T01:59:42.247Z,0.60
2023-01-13T02:02:09.917Z,0.60
2023-01-13T02:04:40.949Z,0.50
2023-01-13T02:07:08.272Z,1.17
2023-01-13T02:09:36.703Z,0.63
2023-01-13T02:12:22.493Z,0.60
2023-01-13T02:14:49.625Z,0.50
2023-01-13T02:17:38.646Z,0.57
2023-01-13T02:20:38.654Z,0.50
2023-01-13T02:23:50.185Z,0.70
2023-01-13T02:26:54.951Z,0.45
2023-01-13T02:30:09.661Z,0.50
2023-01-13T02:33:03.789Z,0.60
2023-01-13T02:35:45.757Z,0.73
2023-01-13T02:38:15.319Z,0.70
2023-01-13T02:40:51.152Z,0.50
2023-01-13T02:43:49.738Z,0.50
2023-01-13T02:46:42.915Z,0.50
2023-01-13T02:49:14.702Z,0.50
2023-01-13T02:51:45.511Z,0.70
2023-01-13T02:54:22.059Z,0.73
2023-01-13T02:56:51.299Z,0.50
2023-01-13T02:59:20.250Z,0.57
2023-01-13T03:01:49.738Z,1.25
2023-01-13T03:04:50.634Z,0.45
2023-01-13T03:07:42.392Z,0.60
2023-01-13T03:10:49.735Z,0.60
2023-01-13T03:13:25.967Z,0.55
2023-01-13T03:16:05.996Z,0.50
2023-01-13T03:18:50.203Z,0.50
2023-01-13T03:21:26.975Z,0.68
2023-01-13T03:23:59.680Z,0.57
2023-01-13T03:26:31.975Z,0.50
2023-01-13T03:29:07.118Z,0.50
2023-01-13T03:31:36.707Z,0.65
2023-01-13T03:34:16.004Z,0.60
2023-01-13T03:36:47.573Z,0.60
2023-01-13T03:39:20.180Z,0.60
2023-01-13T03:41:57.370Z,0.47
2023-01-13T03:44:35.594Z,0.50
2023-01-13T03:47:23.333Z,0.40
2023-01-13T03:49:59.646Z,0.63
2023-01-13T03:52:36.851Z,0.40
2023-01-13T03:55:20.762Z,0.50
2023-01-13T03:57:51.521Z,0.60
2023-01-13T04:00:22.536Z,0.40
2023-01-13T04:03:02.855Z,0.50
2023-01-13T04:05:31.546Z,0.40
2023-01-13T04:08:04.704Z,0.50
2023-01-13T04:10:37.552Z,0.50
2023-01-13T04:13:12.644Z,0.50
2023-01-13T04:15:43.042Z,0.52
2023-01-13T04:18:26.822Z,0.38
2023-01-13T04:20:58.364Z,0.50
2023-01-13T04:23:25.325Z,0.50
2023-01-13T04:25:52.655Z,0.60
2023-01-13T04:28:20.237Z,0.47
2023-01-13T04:30:48.444Z,0.50
2023-01-13T04:33:17.682Z,0.40
2023-01-13T04:35:45.985Z,0.32
2023-01-13T04:38:17.941Z,0.40
2023-01-13T04:40:45.479Z,0.40
2023-01-13T04:43:13.004Z,0.50
2023-01-13T04:45:40.350Z,0.40
2023-01-13T04:48:07.568Z,0.50
2023-01-13T04:50:34.723Z,0.50
2023-01-13T04:53:01.785Z,0.40
2023-01-13T04:55:29.177Z,0.47
2023-01-13T04:57:56.207Z,0.60
2023-01-13T05:00:23.757Z,0.40
2023-01-13T05:02:51.657Z,0.45
2023-01-13T05:05:19.315Z,0.40
2023-01-13T05:07:46.771Z,0.40
2023-01-13T05:10:13.958Z,0.52
2023-01-13T05:12:59.913Z,0.30
2023-01-13T05:15:45.743Z,0.40
2023-01-13T05:18:13.184Z,0.30
2023-01-13T05:20:40.451Z,0.43
2023-01-13T05:23:26.100Z,0.30
2023-01-13T05:25:53.228Z,0.32
2023-01-13T05:28:20.364Z,0.30
2023-01-13T05:30:49.501Z,0.40
2023-01-13T05:33:18.906Z,0.30
2023-01-13T05:35:47.028Z,0.40
2023-01-13T05:38:15.091Z,0.30
2023-01-13T05:41:00.674Z,0.40
2023-01-13T05:43:28.358Z,0.30
2023-01-13T05:46:21.656Z,0.30
2023-01-13T05:48:48.669Z,0.35
2023-01-13T05:51:15.680Z,0.45
2023-01-13T05:53:42.792Z,0.40
2023-01-13T05:56:10.788Z,0.38
2023-01-13T05:58:38.129Z,0.40
2023-01-13T06:01:07.746Z,0.40
2023-01-13T06:03:35.263Z,0.30
2023-01-13T06:06:04.053Z,0.30
2023-01-13T06:08:32.070Z,0.30
2023-01-13T06:10:59.365Z,0.30
2023-01-13T06:13:26.596Z,0.30
2023-01-13T06:16:00.211Z,0.38
2023-01-13T06:18:28.094Z,0.30
2023-01-13T06:20:55.403Z,0.45
2023-01-13T06:23:23.880Z,0.40
2023-01-13T06:26:15.905Z,0.40
2023-01-13T06:28:43.144Z,0.30
2023-01-13T06:31:11.489Z,0.30
2023-01-13T06:33:48.074Z,0.40
2023-01-13T06:36:22.195Z,0.40
2023-01-13T06:38:53.295Z,0.40
2023-01-13T06:41:41.209Z,0.38
2023-01-13T06:44:08.709Z,0.30
2023-01-13T06:46:36.229Z,0.25
2023-01-13T06:49:03.395Z,0.40
2023-01-13T06:51:30.546Z,0.50
2023-01-13T06:53:57.605Z,0.25
2023-01-13T06:56:24.748Z,0.30
2023-01-13T06:58:51.912Z,0.30
2023-01-13T07:01:19.142Z,0.20
2023-01-13T07:03:46.576Z,0.30
2023-01-13T07:06:13.619Z,0.40
2023-01-13T07:08:40.571Z,0.32
2023-01-13T07:11:07.708Z,0.30
2023-01-13T07:13:55.933Z,0.30
2023-01-13T07:16:24.352Z,0.30
2023-01-13T07:18:51.647Z,0.28
2023-01-13T07:21:20.084Z,0.30
2023-01-13T07:23:48.351Z,0.22
2023-01-13T07:26:16.334Z,0.30
2023-01-13T07:28:43.579Z,0.30
2023-01-13T07:31:16.711Z,0.30
2023-01-13T07:33:44.074Z,0.40
2023-01-13T07:36:11.290Z,0.30
2023-01-13T07:38:39.970Z,0.20
2023-01-13T07:41:25.923Z,0.40
2023-01-13T07:43:52.951Z,0.30
2023-01-13T07:46:19.919Z,0.30
2023-01-13T07:48:49.089Z,0.28
2023-01-13T07:51:16.370Z,0.30
2023-01-13T07:53:43.537Z,0.30
2023-01-13T07:56:10.635Z,0.40
2023-01-13T07:58:38.056Z,0.30
2023-01-13T08:01:13.742Z,0.30
2023-01-13T08:03:41.487Z,0.30
2023-01-13T08:06:09.804Z,0.50
2023-01-13T08:08:37.228Z,0.30
2023-01-13T08:11:06.916Z,0.52
2023-01-13T08:13:34.197Z,0.30
2023-01-13T08:16:03.447Z,0.40
2023-01-13T08:18:32.127Z,0.40
2023-01-13T08:21:03.773Z,0.30
2023-01-13T08:23:30.856Z,0.43
2023-01-13T08:26:07.293Z,0.30
2023-01-13T08:28:34.475Z,0.30
2023-01-13T08:31:03.485Z,0.28
2023-01-13T08:33:30.975Z,0.47
2023-01-13T08:35:58.297Z,0.30
2023-01-13T08:38:25.413Z,0.30
2023-01-13T08:40:52.829Z,0.50
2023-01-13T08:43:20.036Z,0.40
2023-01-13T08:45:55.438Z,0.38
2023-01-13T08:48:22.441Z,0.30
2023-01-13T08:50:49.444Z,0.25
2023-01-13T08:53:16.576Z,0.30
2023-01-13T08:55:43.694Z,0.40
2023-01-13T08:58:15.617Z,0.30
2023-01-13T09:00:43.770Z,0.25
2023-01-13T09:03:11.215Z,0.38
2023-01-13T09:05:38.507Z,0.60
2023-01-13T09:08:05.834Z,0.40
2023-01-13T09:10:33.745Z,0.30
2023-01-13T09:13:12.993Z,0.30
2023-01-13T09:15:42.195Z,0.40
2023-01-13T09:18:09.937Z,0.47
2023-01-13T09:20:38.309Z,0.50
2023-01-13T09:23:08.035Z,0.60
2023-01-13T09:25:36.976Z,0.40
2023-01-13T09:28:05.235Z,0.40
2023-01-13T09:30:32.364Z,0.60
2023-01-13T09:33:18.940Z,0.60
2023-01-13T09:35:46.168Z,0.77
2023-01-13T09:38:13.285Z,0.80
2023-01-13T09:40:41.621Z,0.50
2023-01-13T09:43:52.089Z,0.70
2023-01-13T09:46:45.052Z,0.47
2023-01-13T09:49:22.267Z,0.30
2023-01-13T09:51:59.145Z,0.40
2023-01-13T09:54:32.312Z,0.40
2023-01-13T09:56:59.965Z,0.60
2023-01-13T09:59:36.414Z,0.40
2023-01-13T10:02:21.484Z,0.47
2023-01-13T10:10:04.193Z,0.40
2023-01-13T10:12:50.576Z,0.43
2023-01-13T10:15:20.941Z,0.40
2023-01-13T10:17:56.285Z,0.40
2023-01-13T10:20:30.194Z,0.30
2023-01-13T10:23:18.715Z,0.50
2023-01-13T10:26:01.700Z,0.40
2023-01-13T10:28:28.914Z,0.40
2023-01-13T10:30:55.978Z,0.30
2023-01-13T10:33:30.594Z,0.43
2023-01-13T10:35:59.495Z,0.50
2023-01-13T10:38:49.867Z,0.50
2023-01-13T10:41:20.110Z,0.40
2023-01-13T10:44:17.254Z,0.40
2023-01-13T10:46:56.583Z,0.40
2023-01-13T10:49:32.644Z,0.40
2023-01-13T10:52:01.955Z,0.40
2023-01-13T10:54:29.956Z,0.50
2023-01-13T10:57:18.450Z,0.30
2023-01-13T10:59:45.560Z,0.60
2023-01-13T11:02:29.492Z,0.80
2023-01-13T11:04:58.143Z,0.80
2023-01-13T11:07:32.000Z,0.73
2023-01-13T11:10:20.808Z,1.00
2023-01-13T11:13:05.531Z,0.60
2023-01-13T11:15:57.706Z,0.40
2023-01-13T11:18:35.395Z,0.50
2023-01-13T11:21:08.936Z,0.40
2023-01-13T11:23:40.787Z,0.50
2023-01-13T11:26:23.061Z,0.75
2023-01-13T11:29:30.148Z,0.63
2023-01-13T11:32:10.800Z,0.40
2023-01-13T11:34:41.520Z,0.40
2023-01-13T11:37:27.670Z,0.38
2023-01-13T11:40:21.090Z,1.27
2023-01-13T11:43:03.776Z,0.70
2023-01-13T11:45:40.301Z,0.40
2023-01-13T11:48:20.901Z,0.70
2023-01-13T11:50:59.596Z,1.02
2023-01-13T11:53:49.218Z,0.70
2023-01-13T11:56:46.476Z,0.40
2023-01-13T11:59:29.092Z,0.70
2023-01-13T12:02:34.195Z,0.60
2023-01-13T12:05:16.401Z,0.60
2023-01-13T12:08:15.818Z,0.40
2023-01-13T12:10:53.108Z,0.50
2023-01-13T12:14:01.576Z,0.50
2023-01-13T12:16:30.844Z,0.40
2023-01-13T12:19:28.436Z,0.50
2023-01-13T12:22:04.252Z,0.60
2023-01-13T12:24:34.330Z,1.02
2023-01-13T12:27:11.904Z,0.90
2023-01-13T12:29:39.686Z,0.70
2023-01-13T12:32:13.151Z,0.60
2023-01-13T12:35:05.144Z,0.77
2023-01-13T12:37:39.191Z,0.60
2023-01-13T12:40:55.177Z,0.55
2023-01-13T12:43:43.183Z,0.43
2023-01-13T12:46:18.894Z,1.00
2023-01-13T12:49:04.924Z,0.60
2023-01-13T12:51:35.686Z,0.70
2023-01-13T12:54:25.529Z,0.70
2023-01-13T12:56:54.021Z,0.65
2023-01-13T12:59:21.569Z,0.70
2023-01-13T13:02:11.861Z,0.60
2023-01-13T13:04:43.771Z,0.73
2023-01-13T13:07:15.703Z,0.80
2023-01-13T13:10:35.618Z,0.70
2023-01-13T13:13:19.366Z,2.30
2023-01-13T13:15:48.773Z,1.10
2023-01-13T13:18:21.660Z,1.00
2023-01-13T13:21:05.844Z,1.60
2023-01-13T13:23:48.114Z,1.02
2023-01-13T13:26:39.212Z,0.80
2023-01-13T13:29:30.628Z,0.82
2023-01-13T13:32:16.317Z,0.80
2023-01-13T13:34:43.217Z,0.90
2023-01-13T13:37:10.189Z,1.00
2023-01-13T13:40:03.885Z,1.20
2023-01-13T13:43:02.103Z,1.25
2023-01-13T13:45:48.174Z,0.98
2023-01-13T13:48:27.149Z,0.95
2023-01-13T13:50:58.773Z,1.20
2023-01-13T13:53:33.048Z,1.17
2023-01-13T13:56:02.235Z,1.48
2023-01-13T13:58:31.725Z,1.10
2023-01-13T14:01:00.675Z,1.13
2023-01-13T14:03:32.686Z,1.08
2023-01-13T14:06:05.221Z,0.82
2023-01-13T14:08:38.528Z,1.13
2023-01-13T14:11:36.083Z,1.20
2023-01-13T14:14:05.426Z,1.00
2023-01-13T14:16:36.134Z,1.05
2023-01-13T14:19:03.396Z,1.30
2023-01-13T14:21:30.816Z,2.90
2023-01-13T14:24:11.443Z,1.65
2023-01-13T14:26:38.355Z,2.20
2023-01-13T14:29:06.148Z,2.90
2023-01-13T14:31:35.149Z,2.40
2023-01-13T14:34:31.112Z,1.90
2023-01-13T14:36:51.722Z,2.80
2023-01-13T14:39:18.639Z,2.95
2023-01-13T14:41:48.178Z,4.90
2023-01-13T14:44:25.230Z,1.80
2023-01-13T14:46:57.381Z,1.90
2023-01-13T14:49:51.188Z,2.50
2023-01-13T14:52:22.043Z,1.40
2023-01-13T14:54:49.105Z,2.42
2023-01-13T14:57:32.135Z,1.17
2023-01-13T15:00:14.751Z,2.20
2023-01-13T15:02:44.567Z,1.40
2023-01-13T15:05:18.676Z,1.92
2023-01-13T15:07:53.071Z,1.40
2023-01-13T15:10:28.967Z,1.38
2023-01-13T15:12:58.631Z,3.83
2023-01-13T15:15:30.421Z,1.30
2023-01-13T15:17:57.741Z,2.92
2023-01-13T15:20:25.675Z,1.33
2023-01-13T15:22:53.064Z,2.08
2023-01-13T15:25:20.384Z,1.70
2023-01-13T15:27:51.035Z,1.40
2023-01-13T15:30:20.090Z,1.10
2023-01-13T15:32:47.880Z,1.30
2023-01-13T15:35:16.775Z,1.10
2023-01-13T15:37:45.079Z,1.40
2023-01-13T15:40:22.101Z,1.25
2023-01-13T15:43:08.121Z,1.45
2023-01-13T15:45:55.854Z,1.50
2023-01-13T15:48:24.647Z,1.00
2023-01-13T15:50:51.982Z,1.35
2023-01-13T15:53:19.713Z,1.23
2023-01-13T15:55:52.306Z,1.63
2023-01-13T15:58:23.245Z,1.40
2023-01-13T16:00:50.416Z,1.10
2023-01-13T16:03:17.939Z,1.23
2023-01-13T16:05:45.507Z,1.33
2023-01-13T16:08:20.322Z,1.30
2023-01-13T16:10:47.907Z,1.30
2023-01-13T16:13:16.853Z,1.40
2023-01-13T16:15:48.434Z,1.30
2023-01-13T16:18:21.661Z,1.30
2023-01-13T16:20:52.855Z,1.42
2023-01-13T16:23:20.497Z,1.65
2023-01-13T16:25:47.742Z,1.55
2023-01-13T16:28:28.244Z,1.40
2023-01-13T16:30:55.458Z,1.33
2023-01-13T16:33:22.547Z,1.45
2023-01-13T16:36:10.654Z,1.50
2023-01-13T16:38:37.006Z,1.58
2023-01-13T16:41:04.263Z,1.30
2023-01-13T16:43:32.232Z,1.65
2023-01-13T16:45:59.871Z,2.10
2023-01-13T16:48:27.402Z,1.80
2023-01-13T16:50:55.640Z,1.27
2023-01-13T16:53:23.541Z,1.52
2023-01-13T16:55:50.750Z,1.40
2023-01-13T16:58:20.166Z,1.42
2023-01-13T17:00:48.262Z,2.08
2023-01-13T17:03:16.541Z,1.42
2023-01-13T17:05:47.019Z,1.58
2023-01-13T17:08:18.200Z,2.70
2023-01-13T17:10:46.564Z,2.58
2023-01-13T17:13:16.963Z,2.10
2023-01-13T17:15:45.913Z,2.30
2023-01-13T17:18:13.608Z,2.65
2023-01-13T17:20:41.111Z,1.95
2023-01-13T17:23:08.486Z,1.50
2023-01-13T17:25:35.569Z,1.67
2023-01-13T17:28:03.191Z,2.03
2023-01-13T17:30:30.348Z,1.85
2023-01-13T17:32:57.533Z,1.50
2023-01-13T17:35:25.487Z,1.23
2023-01-13T17:37:53.965Z,1.40
2023-01-13T17:40:21.190Z,1.50
2023-01-13T17:42:48.406Z,1.73
2023-01-13T17:45:16.388Z,1.30
2023-01-13T17:47:43.571Z,1.20
2023-01-13T17:50:11.175Z,1.23
2023-01-13T17:52:38.333Z,1.48
2023-01-13T17:55:05.828Z,1.00
2023-01-13T17:57:34.597Z,1.17
2023-01-13T18:00:01.951Z,1.00
2023-01-13T18:02:30.260Z,0.77
2023-01-13T18:04:57.581Z,0.80
2023-01-13T18:07:24.597Z,0.70
2023-01-13T18:09:51.888Z,0.70
2023-01-13T18:12:19.172Z,0.70
2023-01-13T18:14:46.729Z,0.68
2023-01-13T18:17:14.342Z,0.80
2023-01-13T18:20:00.399Z,0.70
2023-01-13T18:22:46.080Z,0.73
2023-01-13T18:25:32.012Z,0.70
2023-01-13T18:28:05.182Z,0.90
2023-01-13T18:30:32.393Z,0.80
2023-01-13T18:33:00.003Z,1.13
2023-01-13T18:35:27.381Z,2.30
2023-01-13T18:37:54.857Z,1.42
2023-01-13T18:40:24.151Z,1.02
2023-01-13T18:42:51.459Z,0.80
2023-01-13T18:45:25.337Z,1.10
2023-01-13T18:47:54.582Z,1.30
2023-01-13T18:50:22.541Z,0.80
2023-01-13T18:52:49.872Z,1.00
2023-01-13T18:55:17.912Z,0.90
2023-01-13T18:57:45.249Z,0.70
2023-01-13T19:00:15.333Z,0.60
2023-01-13T19:02:42.868Z,0.90
2023-01-13T19:05:11.615Z,0.80
2023-01-13T19:07:39.188Z,1.10
2023-01-13T19:10:09.665Z,0.70
2023-01-13T19:12:37.234Z,0.90
2023-01-13T19:15:04.712Z,0.93
2023-01-13T19:17:34.671Z,0.60
2023-01-13T19:20:02.623Z,0.85
2023-01-13T19:22:34.377Z,1.05
2023-01-13T19:25:02.403Z,0.80
2023-01-13T19:27:30.439Z,0.80
2023-01-13T19:29:58.673Z,0.80
2023-01-13T19:32:26.472Z,0.85
2023-01-13T19:34:55.150Z,0.80
2023-01-13T19:37:22.432Z,0.70
2023-01-13T19:39:49.600Z,0.90
2023-01-13T19:42:35.042Z,1.00
2023-01-13T19:45:20.980Z,0.77
2023-01-13T19:47:48.082Z,1.00
2023-01-13T19:50:18.576Z,1.00
2023-01-13T19:52:45.685Z,1.10
2023-01-13T19:55:13.052Z,1.25
2023-01-13T19:57:40.943Z,2.17
2023-01-13T20:00:09.840Z,2.45
2023-01-13T20:02:37.372Z,1.60
2023-01-13T20:05:07.530Z,2.00
2023-01-13T20:07:35.402Z,2.20
2023-01-13T20:10:02.692Z,1.30
2023-01-13T20:12:30.526Z,1.38
2023-01-13T20:14:57.938Z,1.10
2023-01-13T20:17:28.732Z,1.00
2023-01-13T20:19:59.004Z,1.13
2023-01-13T20:22:26.095Z,1.70
2023-01-13T20:24:55.313Z,1.40
2023-01-13T20:27:24.022Z,1.38
2023-01-13T20:29:51.779Z,1.20
2023-01-13T20:32:18.853Z,1.08
2023-01-13T20:34:46.066Z,1.20
2023-01-13T20:37:13.608Z,1.20
2023-01-13T20:39:49.484Z,1.27
2023-01-13T20:42:32.332Z,1.35
2023-01-13T20:45:01.179Z,1.33
2023-01-13T20:47:29.788Z,1.40
2023-01-13T20:49:57.072Z,1.27
2023-01-13T20:52:24.766Z,1.73
2023-01-13T20:54:51.816Z,1.00
2023-01-13T20:57:19.261Z,1.40
2023-01-13T20:59:46.692Z,1.10
2023-01-13T21:02:16.654Z,1.20
2023-01-13T21:04:44.524Z,1.20
2023-01-13T21:07:11.788Z,1.50
2023-01-13T21:09:38.823Z,1.10
2023-01-13T21:12:25.282Z,1.85
2023-01-13T21:15:10.953Z,1.30
2023-01-13T21:17:56.721Z,1.30
2023-01-13T21:20:23.900Z,1.40
2023-01-13T21:22:51.087Z,1.20
2023-01-13T21:25:19.250Z,1.10
2023-01-13T21:27:46.775Z,1.27
2023-01-13T21:30:15.890Z,1.00
2023-01-13T21:32:44.388Z,1.35
2023-01-13T21:35:12.552Z,1.42
2023-01-13T21:37:40.980Z,1.27
2023-01-13T21:40:10.261Z,1.52
2023-01-13T21:42:55.945Z,1.30
2023-01-13T21:45:41.978Z,1.30
2023-01-13T21:48:09.180Z,1.23
2023-01-13T21:50:38.223Z,1.30
2023-01-13T21:53:05.830Z,1.30
2023-01-13T21:55:32.999Z,1.52
2023-01-13T21:58:12.121Z,1.38
2023-01-13T22:00:43.773Z,1.10
2023-01-13T22:03:12.678Z,1.40
2023-01-13T22:05:40.249Z,1.25
2023-01-13T22:08:07.541Z,1.75
2023-01-13T22:10:34.661Z,1.40
2023-01-13T22:13:22.748Z,1.30
2023-01-13T22:15:49.959Z,1.38
2023-01-13T22:18:18.323Z,1.65
2023-01-13T22:20:46.147Z,1.38
2023-01-13T22:23:13.593Z,1.23
2023-01-13T22:25:40.672Z,1.08
2023-01-13T22:28:09.376Z,1.67
2023-01-13T22:30:36.746Z,1.30
2023-01-13T22:33:03.947Z,1.60
2023-01-13T22:35:31.052Z,1.55
2023-01-13T22:37:58.925Z,1.30
2023-01-13T22:40:26.113Z,1.70
2023-01-13T22:42:53.292Z,1.60
2023-01-13T22:45:20.485Z,1.60
2023-01-13T22:47:49.656Z,1.33
2023-01-13T22:50:20.913Z,1.30
2023-01-13T22:52:48.105Z,1.90
2023-01-13T22:55:15.377Z,1.58
2023-01-13T22:57:48.140Z,1.98
2023-01-13T23:00:19.235Z,1.45
2023-01-13T23:02:47.061Z,1.50
2023-01-13T23:05:14.475Z,1.40
2023-01-13T23:07:41.642Z,1.60
2023-01-13T23:10:09.361Z,1.30
2023-01-13T23:12:37.096Z,1.77
2023-01-13T23:15:05.484Z,1.17
2023-01-13T23:17:32.990Z,1.10
2023-01-13T23:20:00.038Z,1.35
2023-01-13T23:22:27.214Z,1.30
2023-01-13T23:24:54.406Z,1.40
2023-01-13T23:27:21.479Z,1.48
2023-01-13T23:29:49.109Z,1.45
2023-01-13T23:32:16.195Z,1.50
2023-01-13T23:34:43.531Z,1.10
2023-01-13T23:37:10.801Z,1.50
2023-01-13T23:39:38.275Z,1.70
2023-01-13T23:42:05.500Z,1.88
2023-01-13T23:44:32.508Z,1.40
2023-01-13T23:46:59.779Z,1.98
2023-01-13T23:49:26.938Z,1.50
2023-01-13T23:51:54.101Z,1.85
2023-01-13T23:54:21.252Z,1.40
2023-01-13T23:56:52.508Z,1.65
2023-01-13T23:59:20.399Z,1.30
